sensor_id;sensor_type;location;lat;lon;timestamp;P1;durP1;ratioP1;P2;durP2;ratioP2
11222;SDS011;5668;52.012;8.724;2022-08-19T00:00:17;5.35;;;4.00;;
11222;SDS011;5668;52.012;8.724;2022-08-19T00:02:45;5.80;;;3.65;;
11222;SDS011;5668;52.012;8.724;2022-08-19T00:05:13;6.13;;;4.05;;
11222;SDS011;5668;52.012;8.724;2022-08-19T00:07:41;6.57;;;3.97;;
11222;SDS011;5668;52.012;8.724;2022-08-19T00:10:11;4.35;;;3.90;;
11222;SDS011;5668;52.012;8.724;2022-08-19T00:12:41;5.57;;;3.88;;
11222;SDS011;5668;52.012;8.724;2022-08-19T00:15:10;4.65;;;3.80;;
11222;SDS011;5668;52.012;8.724;2022-08-19T00:17:40;7.22;;;4.15;;
11222;SDS011;5668;52.012;8.724;2022-08-19T00:20:09;4.65;;;4.18;;
11222;SDS011;5668;52.012;8.724;2022-08-19T00:22:38;4.00;;;3.65;;
11222;SDS011;5668;52.012;8.724;2022-08-19T00:25:06;5.30;;;3.88;;
11222;SDS011;5668;52.012;8.724;2022-08-19T00:27:35;5.38;;;4.15;;
11222;SDS011;5668;52.012;8.724;2022-08-19T00:30:03;4.57;;;4.15;;
11222;SDS011;5668;52.012;8.724;2022-08-19T00:32:31;6.38;;;3.90;;
11222;SDS011;5668;52.012;8.724;2022-08-19T00:34:59;4.78;;;3.75;;
11222;SDS011;5668;52.012;8.724;2022-08-19T00:37:26;6.05;;;4.35;;
11222;SDS011;5668;52.012;8.724;2022-08-19T00:39:54;6.30;;;4.32;;
11222;SDS011;5668;52.012;8.724;2022-08-19T00:42:21;6.45;;;3.85;;
11222;SDS011;5668;52.012;8.724;2022-08-19T00:44:52;5.72;;;4.18;;
11222;SDS011;5668;52.012;8.724;2022-08-19T00:47:19;4.90;;;3.72;;
11222;SDS011;5668;52.012;8.724;2022-08-19T00:49:47;4.90;;;4.00;;
11222;SDS011;5668;52.012;8.724;2022-08-19T00:52:17;6.90;;;4.60;;
11222;SDS011;5668;52.012;8.724;2022-08-19T00:54:48;5.07;;;4.50;;
11222;SDS011;5668;52.012;8.724;2022-08-19T00:57:19;5.78;;;5.07;;
11222;SDS011;5668;52.012;8.724;2022-08-19T00:59:54;6.65;;;5.10;;
11222;SDS011;5668;52.012;8.724;2022-08-19T01:02:24;8.88;;;5.57;;
11222;SDS011;5668;52.012;8.724;2022-08-19T01:04:53;5.68;;;4.95;;
11222;SDS011;5668;52.012;8.724;2022-08-19T01:07:20;6.63;;;5.45;;
11222;SDS011;5668;52.012;8.724;2022-08-19T01:09:47;5.93;;;5.32;;
11222;SDS011;5668;52.012;8.724;2022-08-19T01:12:15;6.47;;;5.05;;
11222;SDS011;5668;52.012;8.724;2022-08-19T01:14:44;5.60;;;5.10;;
11222;SDS011;5668;52.012;8.724;2022-08-19T01:17:14;6.05;;;5.10;;
11222;SDS011;5668;52.012;8.724;2022-08-19T01:19:43;6.30;;;4.97;;
11222;SDS011;5668;52.012;8.724;2022-08-19T01:22:14;8.00;;;4.70;;
11222;SDS011;5668;52.012;8.724;2022-08-19T01:24:47;4.63;;;4.18;;
11222;SDS011;5668;52.012;8.724;2022-08-19T01:27:15;5.45;;;4.95;;
11222;SDS011;5668;52.012;8.724;2022-08-19T01:29:42;6.05;;;5.45;;
11222;SDS011;5668;52.012;8.724;2022-08-19T01:32:11;5.80;;;4.88;;
11222;SDS011;5668;52.012;8.724;2022-08-19T01:34:40;5.88;;;4.80;;
11222;SDS011;5668;52.012;8.724;2022-08-19T01:37:13;5.88;;;5.13;;
11222;SDS011;5668;52.012;8.724;2022-08-19T01:39:41;5.47;;;4.93;;
11222;SDS011;5668;52.012;8.724;2022-08-19T01:42:10;6.32;;;5.47;;
11222;SDS011;5668;52.012;8.724;2022-08-19T01:44:38;6.97;;;5.60;;
11222;SDS011;5668;52.012;8.724;2022-08-19T01:47:06;7.68;;;5.55;;
11222;SDS011;5668;52.012;8.724;2022-08-19T01:49:35;7.68;;;5.45;;
11222;SDS011;5668;52.012;8.724;2022-08-19T01:52:03;8.27;;;5.50;;
11222;SDS011;5668;52.012;8.724;2022-08-19T01:54:31;7.32;;;5.80;;
11222;SDS011;5668;52.012;8.724;2022-08-19T01:57:00;6.85;;;5.70;;
11222;SDS011;5668;52.012;8.724;2022-08-19T01:59:31;8.60;;;6.35;;
11222;SDS011;5668;52.012;8.724;2022-08-19T02:02:01;6.82;;;6.13;;
11222;SDS011;5668;52.012;8.724;2022-08-19T02:04:31;7.70;;;6.32;;
11222;SDS011;5668;52.012;8.724;2022-08-19T02:06:58;7.82;;;6.10;;
11222;SDS011;5668;52.012;8.724;2022-08-19T02:09:26;9.77;;;6.60;;
11222;SDS011;5668;52.012;8.724;2022-08-19T02:11:53;8.77;;;6.78;;
11222;SDS011;5668;52.012;8.724;2022-08-19T02:14:20;6.68;;;6.05;;
11222;SDS011;5668;52.012;8.724;2022-08-19T02:16:49;6.00;;;5.40;;
11222;SDS011;5668;52.012;8.724;2022-08-19T02:19:16;6.63;;;6.03;;
11222;SDS011;5668;52.012;8.724;2022-08-19T02:21:43;7.15;;;6.45;;
11222;SDS011;5668;52.012;8.724;2022-08-19T02:24:11;7.75;;;6.90;;
11222;SDS011;5668;52.012;8.724;2022-08-19T02:26:38;7.30;;;6.50;;
11222;SDS011;5668;52.012;8.724;2022-08-19T02:29:05;7.28;;;6.47;;
11222;SDS011;5668;52.012;8.724;2022-08-19T02:31:33;6.13;;;5.22;;
11222;SDS011;5668;52.012;8.724;2022-08-19T02:34:02;5.90;;;5.40;;
11222;SDS011;5668;52.012;8.724;2022-08-19T02:36:29;6.72;;;4.60;;
11222;SDS011;5668;52.012;8.724;2022-08-19T02:38:56;5.50;;;4.97;;
11222;SDS011;5668;52.012;8.724;2022-08-19T02:41:23;6.63;;;5.25;;
11222;SDS011;5668;52.012;8.724;2022-08-19T02:43:53;6.82;;;5.60;;
11222;SDS011;5668;52.012;8.724;2022-08-19T02:46:23;7.63;;;5.90;;
11222;SDS011;5668;52.012;8.724;2022-08-19T02:48:52;6.38;;;5.78;;
11222;SDS011;5668;52.012;8.724;2022-08-19T02:51:23;8.13;;;6.10;;
11222;SDS011;5668;52.012;8.724;2022-08-19T02:53:51;7.18;;;6.03;;
11222;SDS011;5668;52.012;8.724;2022-08-19T02:56:19;8.02;;;5.93;;
11222;SDS011;5668;52.012;8.724;2022-08-19T02:58:47;7.07;;;6.35;;
11222;SDS011;5668;52.012;8.724;2022-08-19T03:01:19;8.43;;;6.40;;
11222;SDS011;5668;52.012;8.724;2022-08-19T03:03:49;5.95;;;5.38;;
11222;SDS011;5668;52.012;8.724;2022-08-19T03:06:17;5.80;;;4.82;;
11222;SDS011;5668;52.012;8.724;2022-08-19T03:08:46;5.97;;;5.18;;
11222;SDS011;5668;52.012;8.724;2022-08-19T03:11:14;7.20;;;5.63;;
11222;SDS011;5668;52.012;8.724;2022-08-19T03:13:44;8.88;;;5.80;;
11222;SDS011;5668;52.012;8.724;2022-08-19T03:16:14;6.68;;;5.70;;
11222;SDS011;5668;52.012;8.724;2022-08-19T03:18:41;7.75;;;6.18;;
11222;SDS011;5668;52.012;8.724;2022-08-19T03:21:09;8.40;;;6.70;;
11222;SDS011;5668;52.012;8.724;2022-08-19T03:23:41;7.63;;;6.93;;
11222;SDS011;5668;52.012;8.724;2022-08-19T03:26:09;8.35;;;7.50;;
11222;SDS011;5668;52.012;8.724;2022-08-19T03:28:37;7.20;;;6.55;;
11222;SDS011;5668;52.012;8.724;2022-08-19T03:31:05;7.60;;;6.78;;
11222;SDS011;5668;52.012;8.724;2022-08-19T03:33:34;9.77;;;7.18;;
11222;SDS011;5668;52.012;8.724;2022-08-19T03:36:03;8.48;;;7.20;;
11222;SDS011;5668;52.012;8.724;2022-08-19T03:38:33;8.75;;;7.20;;
11222;SDS011;5668;52.012;8.724;2022-08-19T03:41:02;7.63;;;6.82;;
11222;SDS011;5668;52.012;8.724;2022-08-19T03:43:32;8.60;;;7.80;;
11222;SDS011;5668;52.012;8.724;2022-08-19T03:46:01;8.77;;;7.82;;
11222;SDS011;5668;52.012;8.724;2022-08-19T03:48:31;9.38;;;8.35;;
11222;SDS011;5668;52.012;8.724;2022-08-19T03:50:58;9.13;;;8.00;;
11222;SDS011;5668;52.012;8.724;2022-08-19T03:53:26;8.93;;;8.10;;
11222;SDS011;5668;52.012;8.724;2022-08-19T03:55:54;8.45;;;7.50;;
11222;SDS011;5668;52.012;8.724;2022-08-19T03:58:24;7.97;;;7.20;;
11222;SDS011;5668;52.012;8.724;2022-08-19T04:00:55;9.40;;;7.72;;
11222;SDS011;5668;52.012;8.724;2022-08-19T04:03:22;8.77;;;7.90;;
11222;SDS011;5668;52.012;8.724;2022-08-19T04:05:51;9.18;;;8.27;;
11222;SDS011;5668;52.012;8.724;2022-08-19T04:08:18;9.02;;;8.13;;
11222;SDS011;5668;52.012;8.724;2022-08-19T04:10:48;8.55;;;7.70;;
11222;SDS011;5668;52.012;8.724;2022-08-19T04:13:16;8.77;;;7.88;;
11222;SDS011;5668;52.012;8.724;2022-08-19T04:15:44;8.93;;;8.02;;
11222;SDS011;5668;52.012;8.724;2022-08-19T04:18:13;9.05;;;8.10;;
11222;SDS011;5668;52.012;8.724;2022-08-19T04:20:41;8.30;;;7.35;;
11222;SDS011;5668;52.012;8.724;2022-08-19T04:23:10;8.80;;;7.90;;
11222;SDS011;5668;52.012;8.724;2022-08-19T04:25:38;8.35;;;7.55;;
11222;SDS011;5668;52.012;8.724;2022-08-19T04:28:09;8.82;;;7.90;;
11222;SDS011;5668;52.012;8.724;2022-08-19T04:30:39;10.38;;;9.18;;
11222;SDS011;5668;52.012;8.724;2022-08-19T04:33:08;9.68;;;8.70;;
11222;SDS011;5668;52.012;8.724;2022-08-19T04:35:38;7.53;;;6.82;;
11222;SDS011;5668;52.012;8.724;2022-08-19T04:38:07;7.93;;;7.13;;
11222;SDS011;5668;52.012;8.724;2022-08-19T04:40:39;7.70;;;6.82;;
11222;SDS011;5668;52.012;8.724;2022-08-19T04:43:24;7.75;;;7.05;;
11222;SDS011;5668;52.012;8.724;2022-08-19T04:45:52;9.23;;;7.75;;
11222;SDS011;5668;52.012;8.724;2022-08-19T04:48:20;9.05;;;8.07;;
11222;SDS011;5668;52.012;8.724;2022-08-19T04:50:52;7.72;;;7.03;;
11222;SDS011;5668;52.012;8.724;2022-08-19T04:53:22;8.88;;;7.00;;
11222;SDS011;5668;52.012;8.724;2022-08-19T04:55:50;7.95;;;7.15;;
11222;SDS011;5668;52.012;8.724;2022-08-19T04:58:17;9.60;;;7.55;;
11222;SDS011;5668;52.012;8.724;2022-08-19T05:00:44;10.88;;;7.38;;
11222;SDS011;5668;52.012;8.724;2022-08-19T05:03:11;7.57;;;6.88;;
11222;SDS011;5668;52.012;8.724;2022-08-19T05:05:40;8.30;;;7.47;;
11222;SDS011;5668;52.012;8.724;2022-08-19T05:08:10;9.57;;;7.88;;
11222;SDS011;5668;52.012;8.724;2022-08-19T05:10:37;9.15;;;8.20;;
11222;SDS011;5668;52.012;8.724;2022-08-19T05:13:05;9.38;;;8.50;;
11222;SDS011;5668;52.012;8.724;2022-08-19T05:15:34;9.60;;;8.00;;
11222;SDS011;5668;52.012;8.724;2022-08-19T05:18:01;8.05;;;7.35;;
11222;SDS011;5668;52.012;8.724;2022-08-19T05:20:46;9.82;;;8.63;;
11222;SDS011;5668;52.012;8.724;2022-08-19T05:23:32;9.07;;;8.18;;
11222;SDS011;5668;52.012;8.724;2022-08-19T05:25:59;8.50;;;7.70;;
11222;SDS011;5668;52.012;8.724;2022-08-19T05:28:26;8.32;;;7.50;;
11222;SDS011;5668;52.012;8.724;2022-08-19T05:30:53;10.10;;;8.18;;
11222;SDS011;5668;52.012;8.724;2022-08-19T05:33:21;8.48;;;7.68;;
11222;SDS011;5668;52.012;8.724;2022-08-19T05:35:49;8.60;;;7.85;;
11222;SDS011;5668;52.012;8.724;2022-08-19T05:38:17;10.18;;;8.20;;
11222;SDS011;5668;52.012;8.724;2022-08-19T05:40:46;9.25;;;8.27;;
11222;SDS011;5668;52.012;8.724;2022-08-19T05:43:14;9.52;;;8.27;;
11222;SDS011;5668;52.012;8.724;2022-08-19T05:45:42;8.82;;;8.00;;
11222;SDS011;5668;52.012;8.724;2022-08-19T05:48:10;10.73;;;8.88;;
11222;SDS011;5668;52.012;8.724;2022-08-19T05:50:38;10.25;;;9.00;;
11222;SDS011;5668;52.012;8.724;2022-08-19T05:53:06;8.82;;;7.90;;
11222;SDS011;5668;52.012;8.724;2022-08-19T05:55:35;7.97;;;7.25;;
11222;SDS011;5668;52.012;8.724;2022-08-19T05:58:04;8.23;;;7.43;;
11222;SDS011;5668;52.012;8.724;2022-08-19T06:00:32;9.23;;;7.38;;
11222;SDS011;5668;52.012;8.724;2022-08-19T06:03:00;7.65;;;6.43;;
11222;SDS011;5668;52.012;8.724;2022-08-19T06:05:28;7.15;;;6.55;;
11222;SDS011;5668;52.012;8.724;2022-08-19T06:07:55;8.52;;;7.65;;
11222;SDS011;5668;52.012;8.724;2022-08-19T06:10:24;10.50;;;8.43;;
11222;SDS011;5668;52.012;8.724;2022-08-19T06:12:52;11.18;;;9.98;;
11222;SDS011;5668;52.012;8.724;2022-08-19T06:15:22;10.82;;;9.82;;
11222;SDS011;5668;52.012;8.724;2022-08-19T06:17:52;10.57;;;9.60;;
11222;SDS011;5668;52.012;8.724;2022-08-19T06:20:20;9.55;;;8.55;;
11222;SDS011;5668;52.012;8.724;2022-08-19T06:22:48;8.18;;;7.20;;
11222;SDS011;5668;52.012;8.724;2022-08-19T06:25:16;6.43;;;5.82;;
11222;SDS011;5668;52.012;8.724;2022-08-19T06:27:44;7.68;;;5.60;;
11222;SDS011;5668;52.012;8.724;2022-08-19T06:30:12;6.28;;;5.40;;
11222;SDS011;5668;52.012;8.724;2022-08-19T06:32:41;5.60;;;5.10;;
11222;SDS011;5668;52.012;8.724;2022-08-19T06:35:09;6.05;;;5.45;;
11222;SDS011;5668;52.012;8.724;2022-08-19T06:37:36;5.32;;;4.82;;
11222;SDS011;5668;52.012;8.724;2022-08-19T06:40:04;4.90;;;4.40;;
11222;SDS011;5668;52.012;8.724;2022-08-19T06:42:35;5.70;;;4.40;;
11222;SDS011;5668;52.012;8.724;2022-08-19T06:45:04;5.32;;;4.22;;
11222;SDS011;5668;52.012;8.724;2022-08-19T06:47:33;4.97;;;4.47;;
11222;SDS011;5668;52.012;8.724;2022-08-19T06:50:02;5.35;;;4.20;;
11222;SDS011;5668;52.012;8.724;2022-08-19T06:52:32;4.50;;;4.10;;
11222;SDS011;5668;52.012;8.724;2022-08-19T06:55:00;5.28;;;4.78;;
11222;SDS011;5668;52.012;8.724;2022-08-19T06:57:28;4.75;;;4.32;;
11222;SDS011;5668;52.012;8.724;2022-08-19T06:59:57;5.18;;;4.72;;
11222;SDS011;5668;52.012;8.724;2022-08-19T07:02:25;5.60;;;4.60;;
11222;SDS011;5668;52.012;8.724;2022-08-19T07:04:53;4.78;;;4.25;;
11222;SDS011;5668;52.012;8.724;2022-08-19T07:07:24;5.70;;;4.63;;
11222;SDS011;5668;52.012;8.724;2022-08-19T07:09:51;5.90;;;4.40;;
11222;SDS011;5668;52.012;8.724;2022-08-19T07:12:18;5.40;;;4.60;;
11222;SDS011;5668;52.012;8.724;2022-08-19T07:14:46;5.75;;;4.75;;
11222;SDS011;5668;52.012;8.724;2022-08-19T07:17:14;5.20;;;4.55;;
11222;SDS011;5668;52.012;8.724;2022-08-19T07:19:41;6.40;;;5.60;;
11222;SDS011;5668;52.012;8.724;2022-08-19T07:22:09;5.82;;;5.32;;
11222;SDS011;5668;52.012;8.724;2022-08-19T07:24:38;5.78;;;5.28;;
11222;SDS011;5668;52.012;8.724;2022-08-19T07:27:06;5.38;;;4.97;;
11222;SDS011;5668;52.012;8.724;2022-08-19T07:29:35;4.57;;;4.18;;
11222;SDS011;5668;52.012;8.724;2022-08-19T07:32:03;4.93;;;4.30;;
11222;SDS011;5668;52.012;8.724;2022-08-19T07:34:31;4.60;;;4.20;;
11222;SDS011;5668;52.012;8.724;2022-08-19T07:37:02;4.40;;;4.00;;
11222;SDS011;5668;52.012;8.724;2022-08-19T07:39:31;4.25;;;3.60;;
11222;SDS011;5668;52.012;8.724;2022-08-19T07:42:02;4.97;;;3.65;;
11222;SDS011;5668;52.012;8.724;2022-08-19T07:44:32;4.43;;;4.03;;
11222;SDS011;5668;52.012;8.724;2022-08-19T07:46:59;6.03;;;3.50;;
11222;SDS011;5668;52.012;8.724;2022-08-19T07:49:27;5.57;;;4.07;;
11222;SDS011;5668;52.012;8.724;2022-08-19T07:51:55;4.28;;;3.92;;
11222;SDS011;5668;52.012;8.724;2022-08-19T07:54:27;5.28;;;3.70;;
11222;SDS011;5668;52.012;8.724;2022-08-19T07:56:56;4.53;;;4.13;;
11222;SDS011;5668;52.012;8.724;2022-08-19T07:59:25;6.15;;;4.75;;
11222;SDS011;5668;52.012;8.724;2022-08-19T08:01:53;5.05;;;4.15;;
11222;SDS011;5668;52.012;8.724;2022-08-19T08:04:21;4.90;;;4.38;;
11222;SDS011;5668;52.012;8.724;2022-08-19T08:07:06;5.35;;;4.20;;
11222;SDS011;5668;52.012;8.724;2022-08-19T08:09:51;5.10;;;4.50;;
11222;SDS011;5668;52.012;8.724;2022-08-19T08:12:20;4.63;;;4.03;;
11222;SDS011;5668;52.012;8.724;2022-08-19T08:14:56;4.72;;;4.13;;
11222;SDS011;5668;52.012;8.724;2022-08-19T08:17:27;6.82;;;4.22;;
11222;SDS011;5668;52.012;8.724;2022-08-19T08:19:55;4.90;;;4.50;;
11222;SDS011;5668;52.012;8.724;2022-08-19T08:22:23;5.60;;;5.05;;
11222;SDS011;5668;52.012;8.724;2022-08-19T08:25:09;6.90;;;4.60;;
11222;SDS011;5668;52.012;8.724;2022-08-19T08:27:39;5.18;;;4.22;;
11222;SDS011;5668;52.012;8.724;2022-08-19T08:30:09;4.47;;;4.07;;
11222;SDS011;5668;52.012;8.724;2022-08-19T08:32:39;5.68;;;4.20;;
11222;SDS011;5668;52.012;8.724;2022-08-19T08:35:08;6.45;;;3.85;;
11222;SDS011;5668;52.012;8.724;2022-08-19T08:37:38;4.88;;;3.40;;
11222;SDS011;5668;52.012;8.724;2022-08-19T08:40:07;4.82;;;4.20;;
11222;SDS011;5668;52.012;8.724;2022-08-19T08:42:43;5.00;;;3.85;;
11222;SDS011;5668;52.012;8.724;2022-08-19T08:45:20;4.88;;;4.47;;
11222;SDS011;5668;52.012;8.724;2022-08-19T08:47:49;6.80;;;4.95;;
11222;SDS011;5668;52.012;8.724;2022-08-19T08:50:22;5.10;;;4.28;;
11222;SDS011;5668;52.012;8.724;2022-08-19T08:52:56;4.15;;;3.75;;
11222;SDS011;5668;52.012;8.724;2022-08-19T08:55:25;4.45;;;3.53;;
11222;SDS011;5668;52.012;8.724;2022-08-19T08:57:55;4.57;;;4.15;;
11222;SDS011;5668;52.012;8.724;2022-08-19T09:00:28;5.93;;;4.00;;
11222;SDS011;5668;52.012;8.724;2022-08-19T09:02:59;3.53;;;2.85;;
11222;SDS011;5668;52.012;8.724;2022-08-19T09:05:30;3.95;;;2.83;;
11222;SDS011;5668;52.012;8.724;2022-08-19T09:08:07;3.05;;;2.80;;
11222;SDS011;5668;52.012;8.724;2022-08-19T09:10:39;3.15;;;2.40;;
11222;SDS011;5668;52.012;8.724;2022-08-19T09:13:13;6.63;;;3.22;;
11222;SDS011;5668;52.012;8.724;2022-08-19T09:15:51;8.95;;;3.15;;
11222;SDS011;5668;52.012;8.724;2022-08-19T09:18:22;9.45;;;4.28;;
11222;SDS011;5668;52.012;8.724;2022-08-19T09:20:49;12.77;;;4.88;;
11222;SDS011;5668;52.012;8.724;2022-08-19T09:23:17;18.15;;;6.93;;
11222;SDS011;5668;52.012;8.724;2022-08-19T09:25:49;5.75;;;4.28;;
11222;SDS011;5668;52.012;8.724;2022-08-19T09:28:16;4.20;;;3.38;;
11222;SDS011;5668;52.012;8.724;2022-08-19T09:30:44;4.70;;;3.55;;
11222;SDS011;5668;52.012;8.724;2022-08-19T09:33:12;3.40;;;2.85;;
11222;SDS011;5668;52.012;8.724;2022-08-19T09:35:41;3.38;;;3.00;;
11222;SDS011;5668;52.012;8.724;2022-08-19T09:38:08;4.13;;;2.97;;
11222;SDS011;5668;52.012;8.724;2022-08-19T09:40:35;2.40;;;2.20;;
11222;SDS011;5668;52.012;8.724;2022-08-19T09:43:02;4.63;;;2.15;;
11222;SDS011;5668;52.012;8.724;2022-08-19T09:45:30;2.60;;;2.40;;
11222;SDS011;5668;52.012;8.724;2022-08-19T09:47:57;2.50;;;2.17;;
11222;SDS011;5668;52.012;8.724;2022-08-19T09:50:26;3.28;;;2.53;;
11222;SDS011;5668;52.012;8.724;2022-08-19T09:52:53;12.50;;;5.93;;
11222;SDS011;5668;52.012;8.724;2022-08-19T09:55:22;5.43;;;4.15;;
11222;SDS011;5668;52.012;8.724;2022-08-19T09:57:50;16.38;;;7.20;;
11222;SDS011;5668;52.012;8.724;2022-08-19T10:00:20;6.90;;;4.25;;
11222;SDS011;5668;52.012;8.724;2022-08-19T10:02:47;3.45;;;2.22;;
11222;SDS011;5668;52.012;8.724;2022-08-19T10:05:14;2.75;;;2.08;;
11222;SDS011;5668;52.012;8.724;2022-08-19T10:08:01;4.32;;;2.17;;
11222;SDS011;5668;52.012;8.724;2022-08-19T10:10:28;3.15;;;2.60;;
11222;SDS011;5668;52.012;8.724;2022-08-19T10:12:55;3.45;;;2.30;;
11222;SDS011;5668;52.012;8.724;2022-08-19T10:15:23;2.90;;;2.30;;
11222;SDS011;5668;52.012;8.724;2022-08-19T10:17:50;3.78;;;2.40;;
11222;SDS011;5668;52.012;8.724;2022-08-19T10:20:17;4.30;;;2.50;;
11222;SDS011;5668;52.012;8.724;2022-08-19T10:22:46;3.90;;;2.67;;
11222;SDS011;5668;52.012;8.724;2022-08-19T10:25:15;3.15;;;2.45;;
11222;SDS011;5668;52.012;8.724;2022-08-19T10:27:42;2.30;;;2.10;;
11222;SDS011;5668;52.012;8.724;2022-08-19T10:30:10;3.55;;;2.53;;
11222;SDS011;5668;52.012;8.724;2022-08-19T10:32:38;2.58;;;2.38;;
11222;SDS011;5668;52.012;8.724;2022-08-19T10:35:05;2.63;;;2.42;;
11222;SDS011;5668;52.012;8.724;2022-08-19T10:37:33;3.35;;;2.58;;
11222;SDS011;5668;52.012;8.724;2022-08-19T10:40:03;3.15;;;1.90;;
11222;SDS011;5668;52.012;8.724;2022-08-19T10:42:34;3.08;;;1.92;;
11222;SDS011;5668;52.012;8.724;2022-08-19T10:45:02;3.75;;;2.35;;
11222;SDS011;5668;52.012;8.724;2022-08-19T10:47:31;2.38;;;1.95;;
11222;SDS011;5668;52.012;8.724;2022-08-19T10:49:59;2.25;;;2.03;;
11222;SDS011;5668;52.012;8.724;2022-08-19T10:52:44;2.15;;;1.90;;
11222;SDS011;5668;52.012;8.724;2022-08-19T10:55:13;2.30;;;2.10;;
11222;SDS011;5668;52.012;8.724;2022-08-19T10:58:00;2.47;;;2.00;;
11222;SDS011;5668;52.012;8.724;2022-08-19T11:00:27;2.60;;;2.00;;
11222;SDS011;5668;52.012;8.724;2022-08-19T11:02:55;2.78;;;2.15;;
11222;SDS011;5668;52.012;8.724;2022-08-19T11:05:22;3.83;;;1.98;;
11222;SDS011;5668;52.012;8.724;2022-08-19T11:07:50;2.15;;;1.95;;
11222;SDS011;5668;52.012;8.724;2022-08-19T11:10:17;2.15;;;2.00;;
11222;SDS011;5668;52.012;8.724;2022-08-19T11:12:45;2.30;;;2.10;;
11222;SDS011;5668;52.012;8.724;2022-08-19T11:15:14;2.15;;;1.90;;
11222;SDS011;5668;52.012;8.724;2022-08-19T11:17:42;3.92;;;2.13;;
11222;SDS011;5668;52.012;8.724;2022-08-19T11:20:10;4.68;;;2.10;;
11222;SDS011;5668;52.012;8.724;2022-08-19T11:22:39;1.90;;;1.70;;
11222;SDS011;5668;52.012;8.724;2022-08-19T11:25:08;2.78;;;2.00;;
11222;SDS011;5668;52.012;8.724;2022-08-19T11:27:37;2.20;;;2.00;;
11222;SDS011;5668;52.012;8.724;2022-08-19T11:30:07;2.88;;;1.95;;
11222;SDS011;5668;52.012;8.724;2022-08-19T11:32:37;3.78;;;2.22;;
11222;SDS011;5668;52.012;8.724;2022-08-19T11:35:05;2.15;;;1.90;;
11222;SDS011;5668;52.012;8.724;2022-08-19T11:37:33;3.42;;;2.03;;
11222;SDS011;5668;52.012;8.724;2022-08-19T11:40:03;2.60;;;1.63;;
11222;SDS011;5668;52.012;8.724;2022-08-19T11:42:32;2.00;;;1.85;;
11222;SDS011;5668;52.012;8.724;2022-08-19T11:45:17;1.70;;;1.55;;
11222;SDS011;5668;52.012;8.724;2022-08-19T11:47:45;5.53;;;1.80;;
11222;SDS011;5668;52.012;8.724;2022-08-19T11:50:13;4.15;;;1.70;;
11222;SDS011;5668;52.012;8.724;2022-08-19T11:52:41;4.38;;;1.75;;
11222;SDS011;5668;52.012;8.724;2022-08-19T11:55:09;7.13;;;2.10;;
11222;SDS011;5668;52.012;8.724;2022-08-19T11:57:36;2.75;;;2.10;;
11222;SDS011;5668;52.012;8.724;2022-08-19T12:00:06;14.32;;;2.35;;
11222;SDS011;5668;52.012;8.724;2022-08-19T12:02:35;6.40;;;2.20;;
11222;SDS011;5668;52.012;8.724;2022-08-19T12:05:04;9.70;;;2.08;;
11222;SDS011;5668;52.012;8.724;2022-08-19T12:07:32;4.63;;;1.80;;
11222;SDS011;5668;52.012;8.724;2022-08-19T12:10:00;3.08;;;1.50;;
11222;SDS011;5668;52.012;8.724;2022-08-19T12:12:27;3.80;;;1.65;;
11222;SDS011;5668;52.012;8.724;2022-08-19T12:14:55;2.90;;;1.70;;
11222;SDS011;5668;52.012;8.724;2022-08-19T12:17:23;1.60;;;1.40;;
11222;SDS011;5668;52.012;8.724;2022-08-19T12:19:51;2.80;;;1.52;;
11222;SDS011;5668;52.012;8.724;2022-08-19T12:22:20;2.20;;;1.80;;
11222;SDS011;5668;52.012;8.724;2022-08-19T12:24:47;2.95;;;1.58;;
11222;SDS011;5668;52.012;8.724;2022-08-19T12:27:16;4.07;;;1.90;;
11222;SDS011;5668;52.012;8.724;2022-08-19T12:29:43;4.20;;;1.67;;
11222;SDS011;5668;52.012;8.724;2022-08-19T12:32:10;3.72;;;1.88;;
11222;SDS011;5668;52.012;8.724;2022-08-19T12:34:38;2.00;;;1.80;;
11222;SDS011;5668;52.012;8.724;2022-08-19T12:37:05;3.72;;;1.70;;
11222;SDS011;5668;52.012;8.724;2022-08-19T12:39:35;2.45;;;1.80;;
11222;SDS011;5668;52.012;8.724;2022-08-19T12:42:04;2.67;;;1.50;;
11222;SDS011;5668;52.012;8.724;2022-08-19T12:44:32;1.65;;;1.55;;
11222;SDS011;5668;52.012;8.724;2022-08-19T12:46:59;12.77;;;2.40;;
11222;SDS011;5668;52.012;8.724;2022-08-19T12:49:27;9.07;;;2.08;;
11222;SDS011;5668;52.012;8.724;2022-08-19T12:51:56;3.83;;;2.13;;
11222;SDS011;5668;52.012;8.724;2022-08-19T12:54:23;3.80;;;1.98;;
11222;SDS011;5668;52.012;8.724;2022-08-19T12:56:51;2.55;;;1.73;;
11222;SDS011;5668;52.012;8.724;2022-08-19T12:59:19;7.43;;;1.80;;
11222;SDS011;5668;52.012;8.724;2022-08-19T13:01:46;4.07;;;1.90;;
11222;SDS011;5668;52.012;8.724;2022-08-19T13:04:13;2.90;;;1.80;;
11222;SDS011;5668;52.012;8.724;2022-08-19T13:06:41;7.40;;;2.40;;
11222;SDS011;5668;52.012;8.724;2022-08-19T13:09:08;11.32;;;2.20;;
11222;SDS011;5668;52.012;8.724;2022-08-19T13:11:36;2.25;;;1.77;;
11222;SDS011;5668;52.012;8.724;2022-08-19T13:14:05;3.78;;;1.58;;
11222;SDS011;5668;52.012;8.724;2022-08-19T13:16:32;2.42;;;1.52;;
11222;SDS011;5668;52.012;8.724;2022-08-19T13:18:59;7.90;;;1.70;;
11222;SDS011;5668;52.012;8.724;2022-08-19T13:21:29;2.22;;;1.73;;
11222;SDS011;5668;52.012;8.724;2022-08-19T13:23:56;10.13;;;2.15;;
11222;SDS011;5668;52.012;8.724;2022-08-19T13:26:24;3.22;;;1.98;;
11222;SDS011;5668;52.012;8.724;2022-08-19T13:28:51;3.03;;;1.70;;
11222;SDS011;5668;52.012;8.724;2022-08-19T13:31:39;1.90;;;1.73;;
11222;SDS011;5668;52.012;8.724;2022-08-19T13:34:30;2.60;;;1.85;;
11222;SDS011;5668;52.012;8.724;2022-08-19T13:36:58;2.03;;;1.83;;
11222;SDS011;5668;52.012;8.724;2022-08-19T13:39:28;2.42;;;1.60;;
11222;SDS011;5668;52.012;8.724;2022-08-19T13:41:55;3.42;;;1.80;;
11222;SDS011;5668;52.012;8.724;2022-08-19T13:44:24;8.30;;;2.47;;
11222;SDS011;5668;52.012;8.724;2022-08-19T13:46:59;3.40;;;1.90;;
11222;SDS011;5668;52.012;8.724;2022-08-19T13:49:31;2.65;;;1.75;;
11222;SDS011;5668;52.012;8.724;2022-08-19T13:52:01;1.92;;;1.67;;
11222;SDS011;5668;52.012;8.724;2022-08-19T13:54:29;1.60;;;1.50;;
11222;SDS011;5668;52.012;8.724;2022-08-19T13:56:56;2.13;;;1.80;;
11222;SDS011;5668;52.012;8.724;2022-08-19T13:59:23;2.13;;;1.75;;
11222;SDS011;5668;52.012;8.724;2022-08-19T14:01:50;2.17;;;1.83;;
11222;SDS011;5668;52.012;8.724;2022-08-19T14:04:19;2.40;;;2.00;;
11222;SDS011;5668;52.012;8.724;2022-08-19T14:06:46;4.47;;;1.80;;
11222;SDS011;5668;52.012;8.724;2022-08-19T14:09:14;2.38;;;1.90;;
11222;SDS011;5668;52.012;8.724;2022-08-19T14:11:41;3.10;;;1.90;;
11222;SDS011;5668;52.012;8.724;2022-08-19T14:14:10;3.80;;;2.00;;
11222;SDS011;5668;52.012;8.724;2022-08-19T14:16:37;3.38;;;2.17;;
11222;SDS011;5668;52.012;8.724;2022-08-19T14:19:05;2.67;;;1.90;;
11222;SDS011;5668;52.012;8.724;2022-08-19T14:21:34;2.70;;;1.90;;
11222;SDS011;5668;52.012;8.724;2022-08-19T14:24:01;2.03;;;1.80;;
11222;SDS011;5668;52.012;8.724;2022-08-19T14:26:28;2.92;;;1.58;;
11222;SDS011;5668;52.012;8.724;2022-08-19T14:28:56;3.40;;;1.88;;
11222;SDS011;5668;52.012;8.724;2022-08-19T14:31:23;2.22;;;1.90;;
11222;SDS011;5668;52.012;8.724;2022-08-19T14:33:51;3.13;;;1.75;;
11222;SDS011;5668;52.012;8.724;2022-08-19T14:36:19;2.08;;;1.88;;
11222;SDS011;5668;52.012;8.724;2022-08-19T14:38:48;2.83;;;1.92;;
11222;SDS011;5668;52.012;8.724;2022-08-19T14:41:16;2.97;;;1.63;;
11222;SDS011;5668;52.012;8.724;2022-08-19T14:43:46;1.73;;;1.63;;
11222;SDS011;5668;52.012;8.724;2022-08-19T14:46:15;2.13;;;1.65;;
11222;SDS011;5668;52.012;8.724;2022-08-19T14:48:44;1.77;;;1.67;;
11222;SDS011;5668;52.012;8.724;2022-08-19T14:51:12;2.08;;;1.70;;
11222;SDS011;5668;52.012;8.724;2022-08-19T14:53:40;1.77;;;1.67;;
11222;SDS011;5668;52.012;8.724;2022-08-19T14:56:10;1.88;;;1.77;;
11222;SDS011;5668;52.012;8.724;2022-08-19T14:58:39;2.97;;;2.00;;
11222;SDS011;5668;52.012;8.724;2022-08-19T15:01:07;2.13;;;1.60;;
11222;SDS011;5668;52.012;8.724;2022-08-19T15:03:35;2.03;;;1.92;;
11222;SDS011;5668;52.012;8.724;2022-08-19T15:06:03;1.88;;;1.77;;
11222;SDS011;5668;52.012;8.724;2022-08-19T15:08:32;2.30;;;1.60;;
11222;SDS011;5668;52.012;8.724;2022-08-19T15:11:02;3.38;;;1.88;;